Scroll down
FLIGHT INFORMATION
Federal Express (FedEx)

FDX5815

At Arrival Gate

RJBB
 ZBAA
DATE: 2022-09-08
GATE:  -
GATE DEPARTURE: 14:56
TAKEOFF: 15:05
DATE: 2022-09-08
GATE:  -
LANDING: 17:54
GATE ARRIVAL: 17:58
FLIGHT DATA
Crew: 
Speed: 
478 kts
Altitude: 
40,102 ft
Stage Length: 
950.5 nm
Block Time: 
3 hrs
Flight Time: 
2.8 hrs
Fuel Used: 
32,279 lb
Cleared Route: RJBB MAIKO WENDY SHION SOUJA YAKMO STAGE SAPRA BULGA KPO ELAPI CUN BIGOB BASEM ENSAL GUKDO KAKSO KALMA SEL GOGET NOPIK BINIL ANSIM NOGON OLBIM AGAVO IKEKA SEBLI WEH FZ TEKAM HCH DOVIV VIDEL TEMAD DUMAP ZBAA
TRACK DATA
50,000 ft 1,000 kts
AIRCRAFT INFO AND CUMULATIVE STATS
Aircraft Type: 
B77LF
Registration: 
SELCAL: 
MSN/LN: 
66255 / 1655
Total Flights: 
9
Total Block Time: 
50.2 hrs
Total Flight Time: 
47.8 hrs
Total Fuel Used: 
465,945 lb
DATALINK LOG | Newest first | Current as of: 2022-11-26 08:53:10
LABEL SEQUENCE CONTENT Dn/Up
QD083517:58 22.8▼ Dn
QC033017:54▼ Dn
2U0428ZBAA 081730Z 05001MPS CAVOK 18/17 Q1017 NOSIG▲ Up
2S0428ZBAA▼ Dn
QB310315:05▼ Dn
QA225614:56 55.1▼ Dn
2U0238RKSI 081530Z 04002KT CAVOK 21/19 Q1017 NOSIG▲ Up
2U0238ZBAA 081530Z 06001MPS CAVOK 19/18 Q1017 NOSIG▲ Up
2U0237RJBB 081542Z AUTO 03012KT 3200 -RA BR SCT003 BKN005 BKN009 //////TCU 24/23 Q1014 RMK A2994 TCU 30KM E MOV N▲ Up
2S0237RJBB ZBAA RKSI▼ Dn
A30236CLEARED TO ZBAA VIA MAIKO WENDY SHION SOUJA Y324 STAGE Y38 SAPRA Y685 BASEM Y685 KALMA Y685 SEL Y697 OLBIM Y697 AGAVO A591 IKEKA W4 HCH W200 DOVIV W55 DUMAP . SQUAWK 4751.▲ Up
B30236RJBB ZBAA FDX5815 N845FD ▼ Dn
Q00034[LINK ACK]▲ Up
Q00034[LINK TEST]▼ Dn


AIRCRAFT HISTORY
FLIGHT DATE FLIGHT NO. ORIGIN DESTINATION CLEARED ROUTE BLOCK TIME FLIGHT TIME FUEL USED PILOT
2022-09-08FDX5815RJBB ZBAA RJBB MAIKO WENDY SHION SOUJA YAKMO STAGE SAPRA BULGA KPO ELAPI CUN BIGOB BASEM ENSAL GUKDO KAKSO KALMA SEL GOGET NOPIK BINIL ANSIM NOGON OLBIM AGAVO IKEKA SEBLI WEH FZ TEKAM HCH DOVIV VIDEL TEMAD DUMAP ZBAA3 hrs2.8 hrs32,279 lbAllan Burek
2022-05-22FDX5193KMEM RJBB KMEM FOXOM BVO HLC CZI KU90S DORSE YXC YYD LVD LAIRE REMBY NODLE NICHO NOSHO NEONN NANZA NOLTI NAYLD NULUK NANDY NATES NIKLL NYMPH NUZAN NRKEY NIPPI NOGAL NUBDA NANNO NODAN ASTER SDE ELDAK GTC TERAD HAKBA GORYU IKUJI URUSI IMIZU OYABE KMC TRE KIJYY SAEKI ALISA RJBB13.8 hrs13.6 hrs209,917 lbAllan Burek
2022-05-10FDX9845KBOS KMEM KBOS BLZZR BAF BIGGO TRIBS BASYE DBABE BWZ PARKE TOWIN KAYNE HOUTN LRP SAAME FLIRT HYPER MRB EYTEE COLNS PERKS HVQ SPAYD YOCKY UNCKL RYANS BWG KMEM2.5 hrs2.3 hrs29,457 lbAllan Burek
2022-01-30FDX130KMEM KBOS KMEM SLONN LYZZI CRSON HUMMS PXV CREEP SEELA KLYNE DUTSH WWSHR DORET JHW WAYLA VIEEW TYROD MEMMS LOXXE PONCT KBOS2.8 hrs2.4 hrs42,489 lbJohn Binner
2022-01-06FDX9894KDEN KMEM KDEN DUUZE MORRR RZC KMEM1.8 hrs1.6 hrs19,928 lbAllan Burek
2021-11-13FDX519KMEM KDEN KMEM STVVV ZUMIT FOXOM RZC GCK KIISS DYLLN WAIYN LYNKN CLASH EVRLY JURKY ROOTZ RPIDS RDDVL CLFFF MERYN RW16R2.4 hrs2.1 hrs37,787 lbChemtrails
2021-10-14FDX78VHHH KMEM PORPA TD OCEAN AROXA ANPOG JIBEI TIA22 BYWAY BERBA MIKES LESKA KOUKI TENSO NORAN D080M PUTER 42E50 PUGAL 48E60 POWAL PLADO SYA CURVS RIZON 52N60 51N50 50N40 PRETY SEFIX JAKSN YALLO BOFZA OTAYI OCETE TRUNK KK57C ZULID RIVTE HILTY WHOLL HOOOG BRBBQ JAMLA17.8 hrs17.4 hrs0 lbAlex K.
2021-04-19FDX419RKSI VHHH RKSI BOPTA MOXID BEDES ELPOS MANGI DALSU DOTOL KIDOS REMOS PANSI DOMKO PONIK IKEDO KANKA BONSO MUGUS SUBTA SALMI DUBAN BERBA FITCH BESTO COPRA BAKER APU PIDGY HLG SWORD MKG KADLO ANPOG ELATO MAGOG ENPET FISHA ABBEY VHHH3.3 hrs3 hrs52,144 lbKevin Hall
2021-03-12FDX5926ZGGG RKSI ZGGG LMN XEBUL VAVSO EGEDA PLT SAGON NF XUVGI SHR TUPGA ELNEX TOL KAKIS NXD LURMA OLGAP JTN NINAS LASAN BONGI BOLEX TONIX LAMEN SADLI PONIK NIRAT SAMLO SOSDO CJU LOSNI GUKSU KAMIT SAMUL MAKSA ATASO PEBRI GUNKU OLMEN RKSI2.8 hrs2.6 hrs41,944 lbAllan Burek